Hlavní strana
METAR-TAF:

METAR-TAF

Letiště :

Columbia, Jižní Karolína, Spojené státy americké

zeměpisná šířka: 33-58-15N, zeměpisná délka: 080-59-40W, výška: 64 m

Aktuální stav počasí

Zpráva byla vytvořena před 36 minutami, v 03:53 UTC
vítr z různých směrů 6 kt
Teplota 14°C
Vlhkost vzduchu 55%
Tlak 1024 hPa
Viditelnost: 16.1 km
Jasno

METAR: KCUB 310353Z AUTO VRB06KT 10SM CLR 14/05 A3024 RMK AO2 SLP237 T01390050 TSNO

Čas: 00:29 (04:29 UTC)

Předpověď počasí

Zpráva byla vytvořena před 1 hodinou a 57 minutami, v 02:32 UTC
Předpověď platná od 31 v 03 UTC do 31 v 24 UTC
vítr z různých směrů 3 kt
Viditelnost: 10 km
Jasno
Od 31 v 1400 UTC
Severovýchodní vítr 5 kt
Viditelnost: 10 km
Polojasno ve výšce 5000 ft

TAF: KCUB 310232Z 3103/3124 VRB03KT P6SM SKC FM311400 05005KT P6SM SCT050

Stav a předpovědi počasí z více než 4 000 letišť (zprávy METAR a TAF).

Červené a žluté tečky na mapě představují dostupné meteorologické stanice.

Když kurzor umístíte na tečku, zobrazí se název stanice.

Pak kliknutím zobrazíte stav a předpověď počasí.

Chcete-li změnit mapu, kliknutím na zelené tlačítko se znaménkem +mapu přiblížíte, kliknutím na zelené tlačítko se znaménkem – mapu oddálíte a kliknutím na zelené šipky přejdete na sousední mapy.


METAR-TAF: